Terminal Aerodrome Forecast
Issued by NWS

Home | Current Version | Previous Version | Text Only | Print | Product List | Glossary On
Versions: 1 2 3 4 5 6 7 8 9 10 11 12 13
000
FTUS46 KMFR 231200 AAA
TAFRBG
TAF AMD
KRBG 231224Z 2312/2412 VRB03KT P6SM FEW008 SCT090 OVC150
     FM232100 23005KT P6SM FEW025 SCT060 OVC120
     FM240000 26006KT P6SM -SHRA FEW050 SCT070 OVC120
     FM240900 31007KT 5SM RA BR BKN025 BKN035 OVC060=

USA.gov is the U.S. government's official web portal to all federal, state and local government web resources and services.